Time;durP1;ratioP1;P1;durP2;ratioP2;P2;SDS_P1;SDS_P2;PMS_P1;PMS_P2;Temp;Humidity;BMP_temperature;BMP_pressure;BME280_temperature;BME280_humidity;BME280_pressure;Samples;Min_cycle;Max_cycle;Signal;HPM_P1;HPM_P2
2021/01/04 00:01:03;;;;;;;43.83;26.73;;;5.90;94.20;;;;;;5016955;28;20186;-84
2021/01/04 00:03:54;;;;;;;53.07;26.87;;;5.90;94.30;;;;;;5004517;28;20184;-84
2021/01/04 00:06:57;;;;;;;41.37;26.93;;;5.90;94.40;;;;;;5000910;28;20228;-84
2021/01/04 00:09:32;;;;;;;43.50;26.70;;;5.90;94.40;;;;;;5045332;28;20179;-83
2021/01/04 00:12:12;;;;;;;42.87;26.83;;;5.90;94.40;;;;;;5015893;28;20199;-83
2021/01/04 00:14:38;;;;;;;46.37;26.83;;;5.90;94.30;;;;;;5008949;28;20180;-83
2021/01/04 00:18:00;;;;;;;45.07;26.47;;;5.90;94.30;;;;;;5015746;28;20719;-83
2021/01/04 00:20:54;;;;;;;47.83;24.90;;;5.80;94.40;;;;;;5031224;28;20278;-83
2021/01/04 00:23:28;;;;;;;45.33;28.07;;;5.80;94.50;;;;;;5031414;28;20222;-84
2021/01/04 00:26:15;;;;;;;42.27;26.93;;;5.80;94.80;;;;;;5008322;28;20199;-84
2021/01/04 00:28:41;;;;;;;41.80;26.10;;;5.80;94.60;;;;;;5011089;28;20246;-84
2021/01/04 00:31:12;;;;;;;43.03;27.57;;;5.90;94.60;;;;;;5012869;28;20192;-85
2021/01/04 00:33:44;;;;;;;41.57;27.13;;;5.90;94.70;;;;;;5012532;28;20183;-84
2021/01/04 00:36:29;;;;;;;47.40;28.13;;;6.00;94.70;;;;;;5003508;28;20184;-84
2021/01/04 00:39:31;;;;;;;40.93;26.13;;;6.00;95.00;;;;;;5014173;28;20648;-85
2021/01/04 00:42:35;;;;;;;41.37;26.23;;;6.10;94.70;;;;;;5023924;28;20221;-84
2021/01/04 00:45:26;;;;;;;48.70;28.00;;;6.10;94.70;;;;;;5042966;28;20719;-84
2021/01/04 00:48:00;;;;;;;42.67;27.83;;;6.20;94.70;;;;;;5017332;28;20229;-84
2021/01/04 00:50:53;;;;;;;46.30;27.67;;;6.20;94.70;;;;;;5025619;28;20198;-84
2021/01/04 00:53:42;;;;;;;44.17;26.47;;;6.20;94.70;;;;;;5013021;28;20176;-84
2021/01/04 00:56:25;;;;;;;42.83;26.53;;;6.20;94.60;;;;;;5011516;28;20191;-84
2021/01/04 00:59:30;;;;;;;42.43;27.27;;;6.20;94.60;;;;;;5018183;28;20226;-84
2021/01/04 01:02:07;;;;;;;42.70;25.97;;;6.20;94.60;;;;;;5008992;28;20181;-84
2021/01/04 01:04:43;;;;;;;49.00;28.23;;;6.20;94.60;;;;;;5014634;28;20188;-84
2021/01/04 01:07:17;;;;;;;49.33;29.50;;;6.20;94.60;;;;;;5011830;28;20577;-83
2021/01/04 01:09:51;;;;;;;52.43;30.30;;;6.30;94.60;;;;;;5022340;28;20189;-84
2021/01/04 01:12:38;;;;;;;58.33;29.37;;;6.30;94.60;;;;;;5008786;28;20188;-84
2021/01/04 01:15:17;;;;;;;57.10;28.67;;;6.30;94.60;;;;;;5017709;28;20254;-84
2021/01/04 01:18:11;;;;;;;53.50;30.07;;;6.30;94.60;;;;;;5009326;28;20334;-84
2021/01/04 01:20:41;;;;;;;55.27;30.73;;;6.40;94.60;;;;;;5019826;28;20189;-84
2021/01/04 01:23:11;;;;;;;50.70;30.13;;;6.40;94.60;;;;;;5015852;28;20192;-83
2021/01/04 01:25:46;;;;;;;51.10;30.17;;;6.40;94.60;;;;;;5015513;28;20620;-84
2021/01/04 01:28:34;;;;;;;51.97;31.20;;;6.40;94.60;;;;;;5016157;28;20219;-84
2021/01/04 01:31:25;;;;;;;60.07;31.80;;;6.40;94.60;;;;;;5006133;28;20189;-84
2021/01/04 01:34:28;;;;;;;62.77;31.17;;;6.40;94.60;;;;;;5014896;28;20206;-84
2021/01/04 01:37:12;;;;;;;58.13;30.00;;;6.50;94.60;;;;;;5002701;28;20249;-84
2021/01/04 01:40:03;;;;;;;53.57;30.97;;;6.50;94.60;;;;;;5008631;28;20184;-84
2021/01/04 01:42:46;;;;;;;60.13;32.03;;;6.50;94.60;;;;;;5019560;28;20699;-83
2021/01/04 01:45:12;;;;;;;55.23;31.67;;;6.50;94.50;;;;;;5025430;28;20284;-83
2021/01/04 01:48:15;;;;;;;61.37;32.80;;;6.50;94.50;;;;;;5016967;28;20231;-83
2021/01/04 01:50:47;;;;;;;56.10;29.60;;;6.50;94.50;;;;;;5013610;28;20190;-84
2021/01/04 01:53:26;;;;;;;76.27;34.10;;;6.50;94.50;;;;;;5017504;28;20188;-84
2021/01/04 01:56:13;;;;;;;56.90;31.23;;;6.50;94.50;;;;;;5033701;28;20192;-84
2021/01/04 01:58:53;;;;;;;57.73;31.77;;;6.50;94.50;;;;;;5013283;28;20179;-84
2021/01/04 02:01:32;;;;;;;69.03;34.70;;;6.50;94.50;;;;;;5015372;28;20535;-84
2021/01/04 02:04:00;;;;;;;51.90;30.83;;;6.50;94.40;;;;;;5037162;28;20469;-84
2021/01/04 02:06:38;;;;;;;55.77;31.57;;;6.60;94.50;;;;;;5040587;28;20319;-84
2021/01/04 02:09:12;;;;;;;54.33;31.43;;;6.60;94.50;;;;;;5025711;28;20708;-84
2021/01/04 02:11:52;;;;;;;56.23;30.83;;;6.50;94.40;;;;;;5018253;28;20195;-85
2021/01/04 02:14:43;;;;;;;57.73;31.77;;;6.60;94.50;;;;;;5017017;28;20196;-84
2021/01/04 02:17:47;;;;;;;55.60;30.60;;;6.60;94.50;;;;;;5045351;28;20188;-84
2021/01/04 02:20:37;;;;;;;55.50;31.07;;;6.60;94.50;;;;;;5020670;28;20196;-84
2021/01/04 02:23:55;;;;;;;58.23;32.43;;;6.60;94.50;;;;;;4999266;28;20300;-84
2021/01/04 02:26:24;;;;;;;51.73;30.50;;;6.60;94.50;;;;;;5011414;28;20200;-84
2021/01/04 02:29:11;;;;;;;63.50;32.53;;;6.60;94.50;;;;;;5014062;28;20271;-84
2021/01/04 02:31:39;;;;;;;58.13;31.47;;;6.60;94.50;;;;;;5016310;28;20243;-84
2021/01/04 02:34:09;;;;;;;61.70;33.63;;;6.60;94.40;;;;;;5018300;28;20199;-84
2021/01/04 02:36:42;;;;;;;56.93;31.70;;;6.60;94.50;;;;;;5014653;28;20254;-84
2021/01/04 02:39:22;;;;;;;60.20;33.43;;;6.60;94.50;;;;;;5049307;28;20199;-84
2021/01/04 02:41:56;;;;;;;74.10;35.60;;;6.60;94.40;;;;;;5005379;28;20250;-84
2021/01/04 02:44:26;;;;;;;82.00;36.80;;;6.60;94.40;;;;;;5019016;28;20265;-84
2021/01/04 02:47:24;;;;;;;74.53;36.07;;;6.60;94.40;;;;;;5016409;28;20204;-84
2021/01/04 02:50:03;;;;;;;79.10;36.50;;;6.60;94.40;;;;;;5011226;28;20211;-84
2021/01/04 02:52:48;;;;;;;69.03;36.70;;;6.60;94.40;;;;;;5010335;28;20571;-84
2021/01/04 02:55:50;;;;;;;79.90;38.00;;;6.70;94.40;;;;;;5018328;28;20656;-85
2021/01/04 02:58:42;;;;;;;98.67;40.33;;;6.70;94.40;;;;;;5031013;28;20199;-85
2021/01/04 03:01:13;;;;;;;95.57;40.90;;;6.70;94.40;;;;;;5008674;28;20192;-85
2021/01/04 03:03:40;;;;;;;78.13;38.77;;;6.70;94.40;;;;;;5019341;28;20822;-84
2021/01/04 03:06:11;;;;;;;91.80;40.80;;;6.70;94.40;;;;;;5015587;28;20243;-84
2021/01/04 03:08:36;;;;;;;114.93;40.77;;;6.70;94.40;;;;;;5022109;28;20226;-84
2021/01/04 03:11:06;;;;;;;106.80;42.07;;;6.70;94.40;;;;;;5022577;28;20219;-84
2021/01/04 03:13:40;;;;;;;101.10;41.17;;;6.70;94.30;;;;;;5047713;28;20180;-84
2021/01/04 03:16:17;;;;;;;130.07;45.27;;;6.60;94.30;;;;;;5011910;28;20195;-84
2021/01/04 03:18:46;;;;;;;109.17;40.37;;;6.60;94.30;;;;;;5011345;28;20192;-84
2021/01/04 03:21:13;;;;;;;92.17;41.03;;;6.50;94.30;;;;;;5002298;28;20724;-84
2021/01/04 03:23:51;;;;;;;95.07;41.27;;;6.50;94.30;;;;;;5005798;28;20188;-84
2021/01/04 03:26:23;;;;;;;80.97;39.80;;;6.50;94.40;;;;;;5050815;28;20185;-84
2021/01/04 03:28:49;;;;;;;93.07;41.87;;;6.50;94.40;;;;;;5007385;28;20190;-84
2021/01/04 03:31:15;;;;;;;91.73;40.73;;;6.50;94.50;;;;;;5048090;28;20271;-84
2021/01/04 03:33:40;;;;;;;96.33;42.77;;;6.50;94.50;;;;;;5012047;28;20271;-84
2021/01/04 03:36:07;;;;;;;87.03;41.03;;;6.50;94.50;;;;;;5006045;28;20255;-84
2021/01/04 03:38:34;;;;;;;82.37;40.57;;;6.60;94.50;;;;;;5015580;28;20267;-84
2021/01/04 03:41:02;;;;;;;99.40;42.40;;;6.60;94.50;;;;;;5018077;28;20222;-85
2021/01/04 03:43:28;;;;;;;110.10;43.57;;;6.60;94.50;;;;;;5032643;28;20632;-83
2021/01/04 03:45:54;;;;;;;91.30;41.57;;;6.60;94.70;;;;;;5013701;28;20631;-84
2021/01/04 03:48:20;;;;;;;91.73;44.10;;;6.60;94.50;;;;;;5015262;28;20211;-84
2021/01/04 03:50:46;;;;;;;103.50;43.97;;;6.60;94.50;;;;;;5041670;28;20680;-84
2021/01/04 03:53:12;;;;;;;91.50;41.70;;;6.60;94.50;;;;;;5018953;28;20632;-84
2021/01/04 03:55:39;;;;;;;97.23;41.20;;;6.70;94.50;;;;;;5010156;28;20203;-84
2021/01/04 03:58:05;;;;;;;86.03;40.60;;;6.70;94.50;;;;;;5035585;28;20198;-84
2021/01/04 04:00:31;;;;;;;93.07;43.60;;;6.70;94.50;;;;;;5011567;28;20192;-84
2021/01/04 04:02:57;;;;;;;92.43;42.77;;;6.70;94.50;;;;;;5010140;28;20196;-84
2021/01/04 04:05:23;;;;;;;101.57;43.30;;;6.70;94.50;;;;;;5039297;28;20252;-84
2021/01/04 04:07:50;;;;;;;95.77;44.47;;;6.70;94.50;;;;;;5013396;28;20513;-84
2021/01/04 04:10:19;;;;;;;103.47;45.03;;;6.70;94.50;;;;;;5007182;28;20254;-84
2021/01/04 04:12:45;;;;;;;92.03;42.73;;;6.70;94.50;;;;;;5014937;28;20192;-84
2021/01/04 04:15:14;;;;;;;113.37;44.27;;;6.70;94.50;;;;;;5011678;28;20658;-84
2021/01/04 04:17:41;;;;;;;89.07;42.27;;;6.70;94.50;;;;;;5008334;28;20191;-85
2021/01/04 04:20:12;;;;;;;107.40;43.63;;;6.70;94.50;;;;;;5009532;28;20377;-84
2021/01/04 04:22:38;;;;;;;114.43;44.70;;;6.70;94.50;;;;;;5027104;28;20188;-84
2021/01/04 04:25:06;;;;;;;107.83;43.10;;;6.70;94.50;;;;;;5030209;28;20188;-84
2021/01/04 04:27:32;;;;;;;125.53;45.50;;;6.70;94.50;;;;;;5039388;28;20212;-84
2021/01/04 04:29:59;;;;;;;113.33;45.57;;;6.70;94.50;;;;;;5000170;28;20188;-84
2021/01/04 04:32:25;;;;;;;98.97;43.13;;;6.70;94.50;;;;;;5013183;28;20188;-84
2021/01/04 04:34:50;;;;;;;138.60;47.10;;;6.70;94.50;;;;;;5023015;28;20211;-83
2021/01/04 04:37:17;;;;;;;117.20;47.77;;;6.70;94.40;;;;;;5014965;28;20203;-84
2021/01/04 04:39:42;;;;;;;113.13;43.67;;;6.70;94.40;;;;;;5006410;28;20198;-84
2021/01/04 04:42:12;;;;;;;110.53;45.33;;;6.70;94.40;;;;;;5011824;28;20227;-84
2021/01/04 04:44:58;;;;;;;109.73;45.03;;;6.70;94.40;;;;;;5013742;28;20688;-84
2021/01/04 04:47:45;;;;;;;83.90;40.57;;;6.70;94.50;;;;;;5015014;28;20235;-84
2021/01/04 04:50:46;;;;;;;122.30;46.07;;;6.70;94.50;;;;;;5021621;28;20619;-84
2021/01/04 04:53:37;;;;;;;123.70;43.27;;;6.70;94.50;;;;;;5015672;28;20205;-84
2021/01/04 04:56:26;;;;;;;84.57;42.47;;;6.70;94.40;;;;;;5031422;28;20539;-85
2021/01/04 04:59:11;;;;;;;94.50;40.37;;;6.70;94.40;;;;;;5042938;28;20185;-85
2021/01/04 05:02:13;;;;;;;108.20;43.17;;;6.70;94.40;;;;;;5011391;28;20181;-85
2021/01/04 05:04:42;;;;;;;87.80;40.60;;;6.70;94.40;;;;;;5021891;28;20197;-84
2021/01/04 05:07:27;;;;;;;112.60;42.30;;;6.70;94.40;;;;;;5012362;28;20246;-85
2021/01/04 05:10:17;;;;;;;93.07;41.07;;;6.70;94.40;;;;;;5020400;28;20222;-85
2021/01/04 05:13:14;;;;;;;105.77;41.00;;;6.70;94.50;;;;;;5009400;28;20836;-84
2021/01/04 05:16:00;;;;;;;100.57;42.33;;;6.80;94.50;;;;;;5042802;28;20196;-85
2021/01/04 05:19:12;;;;;;;110.40;42.73;;;6.80;94.50;;;;;;5027124;28;20192;-84
2021/01/04 05:22:09;;;;;;;137.03;43.57;;;6.80;94.50;;;;;;5045546;28;20211;-84
2021/01/04 05:25:01;;;;;;;127.47;44.80;;;6.80;94.40;;;;;;5017469;28;20188;-84
2021/01/04 05:27:57;;;;;;;109.80;44.77;;;6.80;94.40;;;;;;5020446;28;20818;-84
2021/01/04 05:30:32;;;;;;;127.47;43.77;;;6.80;94.40;;;;;;5008148;28;20201;-84
2021/01/04 05:33:04;;;;;;;119.77;44.30;;;6.80;94.40;;;;;;5043572;28;20278;-84
2021/01/04 05:35:30;;;;;;;124.13;45.67;;;6.80;94.40;;;;;;5026691;28;20216;-84
2021/01/04 05:38:34;;;;;;;134.97;47.60;;;6.80;94.40;;;;;;5000731;28;20631;-84
2021/01/04 05:41:17;;;;;;;143.63;47.27;;;6.80;94.40;;;;;;5031690;28;20673;-84
2021/01/04 05:44:11;;;;;;;114.33;44.30;;;6.80;94.40;;;;;;5007987;28;20666;-84
2021/01/04 05:46:47;;;;;;;124.73;45.00;;;6.80;94.40;;;;;;5025238;28;20310;-84
2021/01/04 05:49:42;;;;;;;131.10;46.30;;;6.80;94.40;;;;;;5009832;28;20202;-84
2021/01/04 05:52:08;;;;;;;152.13;49.47;;;6.80;94.40;;;;;;5013777;28;20200;-84
2021/01/04 05:54:37;;;;;;;142.93;48.57;;;6.80;94.40;;;;;;5047010;28;20188;-84
2021/01/04 05:57:17;;;;;;;126.67;47.93;;;6.80;94.40;;;;;;5013376;28;20193;-84
2021/01/04 05:59:49;;;;;;;199.23;51.77;;;6.80;94.50;;;;;;5010264;28;20579;-84
2021/01/04 06:02:33;;;;;;;193.27;52.17;;;6.80;94.50;;;;;;5013797;28;20193;-84
2021/01/04 06:05:17;;;;;;;164.03;48.63;;;6.80;94.50;;;;;;5017565;28;20188;-84
2021/01/04 06:07:45;;;;;;;234.13;53.43;;;6.80;94.50;;;;;;5029054;28;20648;-84
2021/01/04 06:10:43;;;;;;;183.70;53.67;;;6.80;94.50;;;;;;5014297;28;20185;-84
2021/01/04 06:13:14;;;;;;;188.70;52.00;;;6.80;94.50;;;;;;4997651;28;20196;-84
2021/01/04 06:15:41;;;;;;;150.13;49.00;;;6.80;94.50;;;;;;5017423;28;20188;-84
2021/01/04 06:18:18;;;;;;;151.47;50.40;;;6.80;94.50;;;;;;5009301;28;20207;-84
2021/01/04 06:20:43;;;;;;;146.97;49.03;;;6.80;94.50;;;;;;5018324;28;20710;-84
2021/01/04 06:23:16;;;;;;;291.23;60.43;;;6.80;94.50;;;;;;5015262;28;20230;-85
2021/01/04 06:25:42;;;;;;;187.33;51.47;;;6.80;94.50;;;;;;5006108;28;20298;-84
2021/01/04 06:28:08;;;;;;;412.17;69.07;;;6.80;94.50;;;;;;5003686;28;20254;-84
2021/01/04 06:30:36;;;;;;;320.87;63.03;;;6.90;94.50;;;;;;5016111;28;20604;-84
2021/01/04 06:33:04;;;;;;;296.00;60.43;;;6.80;94.50;;;;;;5004985;28;20210;-84
2021/01/04 06:35:33;;;;;;;417.90;66.53;;;6.80;94.50;;;;;;5014947;28;20434;-84
2021/01/04 06:38:23;;;;;;;395.33;64.43;;;6.80;94.40;;;;;;5039611;28;20536;-84
2021/01/04 06:40:49;;;;;;;317.60;60.90;;;6.80;94.50;;;;;;5014592;28;20195;-84
2021/01/04 06:43:18;;;;;;;221.60;54.10;;;6.70;94.50;;;;;;5016531;28;20192;-84
2021/01/04 06:45:50;;;;;;;354.53;64.27;;;6.70;94.50;;;;;;5018658;28;20250;-84
2021/01/04 06:48:24;;;;;;;377.83;65.10;;;6.70;94.60;;;;;;5004307;28;20212;-84
2021/01/04 06:51:27;;;;;;;433.80;72.30;;;6.70;94.60;;;;;;5022806;28;20665;-84
2021/01/04 06:54:11;;;;;;;312.67;62.23;;;6.70;94.60;;;;;;5022126;28;20202;-84
2021/01/04 06:56:52;;;;;;;371.90;70.03;;;6.70;94.60;;;;;;5032856;28;20255;-85
2021/01/04 06:59:55;;;;;;;134.20;46.87;;;6.70;94.60;;;;;;5021125;28;20624;-84
2021/01/04 07:02:52;;;;;;;218.90;54.73;;;6.70;94.70;;;;;;5021864;28;20646;-84
2021/01/04 07:05:47;;;;;;;290.73;58.57;;;6.70;95.00;;;;;;5010863;28;20195;-84
2021/01/04 07:09:08;;;;;;;330.30;62.43;;;6.70;94.70;;;;;;5022056;28;20294;-84
2021/01/04 07:11:56;;;;;;;232.90;55.87;;;6.80;94.70;;;;;;4993853;28;20633;-84
2021/01/04 07:14:37;;;;;;;180.97;52.57;;;6.80;94.70;;;;;;4988303;28;20200;-84
2021/01/04 07:17:34;;;;;;;228.03;55.80;;;6.80;94.70;;;;;;5002894;28;20261;-84
2021/01/04 07:20:28;;;;;;;168.70;49.67;;;6.80;94.70;;;;;;5012332;28;20179;-84
2021/01/04 07:23:15;;;;;;;144.60;49.13;;;6.90;94.70;;;;;;5006237;28;20314;-84
2021/01/04 07:26:00;;;;;;;83.80;36.67;;;6.90;94.70;;;;;;5013757;28;20192;-84
2021/01/04 07:28:31;;;;;;;80.97;36.90;;;6.90;94.70;;;;;;5012936;28;20215;-84
2021/01/04 07:31:33;;;;;;;141.97;44.60;;;6.90;94.60;;;;;;5003340;28;20220;-84
2021/01/04 07:34:13;;;;;;;86.27;36.37;;;7.00;94.60;;;;;;5032159;28;20733;-84
2021/01/04 07:37:10;;;;;;;69.27;33.23;;;7.00;94.60;;;;;;5016492;28;20251;-84
2021/01/04 07:39:45;;;;;;;95.53;37.87;;;7.00;94.60;;;;;;5013168;28;20250;-84
2021/01/04 07:42:20;;;;;;;145.67;45.00;;;7.00;94.60;;;;;;5012836;28;20196;-84
2021/01/04 07:45:27;;;;;;;125.40;44.57;;;7.00;94.60;;;;;;5024198;28;20639;-84
2021/01/04 07:48:02;;;;;;;141.63;42.57;;;7.00;94.90;;;;;;5011494;28;20274;-84
2021/01/04 07:50:44;;;;;;;83.43;36.23;;;7.00;94.60;;;;;;5017323;28;20270;-84
2021/01/04 07:53:28;;;;;;;86.13;33.00;;;7.10;94.60;;;;;;5022116;28;20191;-84
2021/01/04 07:56:12;;;;;;;87.90;33.43;;;7.10;94.50;;;;;;5038819;28;20275;-84
2021/01/04 07:59:00;;;;;;;104.53;35.23;;;7.10;94.50;;;;;;5019200;28;20261;-84
2021/01/04 08:01:59;;;;;;;73.10;34.33;;;7.00;94.50;;;;;;5014244;28;20252;-84
2021/01/04 08:04:43;;;;;;;86.03;34.37;;;7.10;94.50;;;;;;5030602;28;20226;-84
2021/01/04 08:07:15;;;;;;;93.03;36.17;;;7.10;94.50;;;;;;5010889;28;20314;-84
2021/01/04 08:10:00;;;;;;;88.53;34.97;;;7.10;94.50;;;;;;5014396;28;20188;-84
2021/01/04 08:12:55;;;;;;;66.53;32.63;;;7.10;94.50;;;;;;5042639;28;20509;-85
2021/01/04 08:15:59;;;;;;;131.73;38.83;;;7.10;94.40;;;;;;5009803;28;20204;-84
2021/01/04 08:18:25;;;;;;;76.17;33.47;;;7.10;94.40;;;;;;5015139;28;20196;-85
2021/01/04 08:20:59;;;;;;;81.13;35.30;;;7.00;94.40;;;;;;5020214;28;20593;-84
2021/01/04 08:23:49;;;;;;;85.67;34.73;;;7.10;94.40;;;;;;5026181;28;20208;-84
2021/01/04 08:26:35;;;;;;;72.93;34.33;;;7.10;94.40;;;;;;5031659;28;20209;-84
2021/01/04 08:29:05;;;;;;;74.23;33.83;;;7.10;94.40;;;;;;5017829;28;20586;-84
2021/01/04 08:31:45;;;;;;;61.33;30.70;;;7.10;94.40;;;;;;5044831;28;20195;-84
2021/01/04 08:34:19;;;;;;;58.93;30.30;;;7.10;94.40;;;;;;5010386;28;20245;-84
2021/01/04 08:36:44;;;;;;;62.37;31.60;;;7.10;94.40;;;;;;5008238;28;20600;-84
2021/01/04 08:39:19;;;;;;;60.60;30.23;;;7.20;94.40;;;;;;5018614;28;20219;-84
2021/01/04 08:41:49;;;;;;;68.10;31.90;;;7.20;94.30;;;;;;5028747;28;20188;-84
2021/01/04 08:44:19;;;;;;;66.23;30.37;;;7.20;94.30;;;;;;5009865;28;20222;-84
2021/01/04 08:46:46;;;;;;;65.57;31.93;;;7.20;94.30;;;;;;5023383;28;20242;-84
2021/01/04 08:49:19;;;;;;;62.43;28.43;;;7.20;94.30;;;;;;5011603;28;20197;-83
2021/01/04 08:51:47;;;;;;;58.47;28.90;;;7.20;94.30;;;;;;5021344;28;20186;-83
2021/01/04 08:54:13;;;;;;;68.40;31.53;;;7.30;94.30;;;;;;5022731;28;20189;-84
2021/01/04 08:56:45;;;;;;;57.70;31.10;;;7.30;94.20;;;;;;5026472;28;20213;-84
2021/01/04 08:59:21;;;;;;;55.17;29.00;;;7.30;94.20;;;;;;5014016;28;20275;-84
2021/01/04 09:02:00;;;;;;;59.47;28.27;;;7.30;94.20;;;;;;5011350;28;20180;-84
2021/01/04 09:04:27;;;;;;;92.90;32.27;;;7.40;94.20;;;;;;5019331;28;20190;-85
2021/01/04 09:07:11;;;;;;;108.20;31.13;;;7.40;94.20;;;;;;5020167;28;20403;-85
2021/01/04 09:09:58;;;;;;;70.10;29.07;;;7.40;94.10;;;;;;5013331;28;20176;-84
2021/01/04 09:12:37;;;;;;;72.63;38.03;;;7.40;94.00;;;;;;5014739;28;20459;-84
2021/01/04 09:15:21;;;;;;;48.50;26.97;;;7.40;94.00;;;;;;5010903;28;20190;-84
2021/01/04 09:18:07;;;;;;;71.60;38.10;;;7.50;94.00;;;;;;5011264;28;20173;-84
2021/01/04 09:20:43;;;;;;;78.90;28.97;;;7.50;94.00;;;;;;5017796;28;20176;-84
2021/01/04 09:23:30;;;;;;;54.20;29.00;;;7.50;94.00;;;;;;5028453;28;20202;-84
2021/01/04 09:26:01;;;;;;;58.17;27.57;;;7.60;93.90;;;;;;5040446;28;20280;-84
2021/01/04 09:28:36;;;;;;;204.33;81.60;;;7.60;93.80;;;;;;5016878;28;20211;-85
2021/01/04 09:31:02;;;;;;;63.13;33.23;;;7.60;93.80;;;;;;5014348;28;20175;-84
2021/01/04 09:33:28;;;;;;;58.20;28.83;;;7.50;93.70;;;;;;5014433;28;20191;-84
2021/01/04 09:36:04;;;;;;;80.20;42.20;;;7.50;93.70;;;;;;5022104;28;20634;-84
2021/01/04 09:38:30;;;;;;;51.00;27.73;;;7.50;93.70;;;;;;5015419;28;21109;-84
2021/01/04 09:40:58;;;;;;;52.47;27.67;;;7.50;93.60;;;;;;5017367;28;20184;-84
2021/01/04 09:43:29;;;;;;;54.63;31.53;;;7.50;93.60;;;;;;5014259;28;20184;-84
2021/01/04 09:46:14;;;;;;;40.93;24.70;;;7.50;93.60;;;;;;5013366;28;20192;-84
2021/01/04 09:48:49;;;;;;;51.20;28.93;;;7.50;93.60;;;;;;5012760;28;20207;-84
2021/01/04 09:51:23;;;;;;;42.90;26.50;;;7.60;93.60;;;;;;5021124;28;20199;-84
2021/01/04 09:53:57;;;;;;;40.27;23.20;;;7.60;93.50;;;;;;5006776;28;20275;-84
2021/01/04 09:56:31;;;;;;;36.30;22.87;;;7.60;93.40;;;;;;5018977;28;20180;-84
2021/01/04 09:59:18;;;;;;;43.83;24.23;;;7.70;93.30;;;;;;5017133;28;20190;-84
2021/01/04 10:01:55;;;;;;;38.17;22.10;;;7.70;93.20;;;;;;5009769;28;20194;-84
2021/01/04 10:04:37;;;;;;;36.15;24.35;;;7.70;93.20;;;;;;5020816;28;20894;-85
2021/01/04 10:07:07;;;;;;;35.57;21.30;;;7.80;93.00;;;;;;5018135;28;20296;-85
2021/01/04 10:09:41;;;;;;;27.27;20.20;;;7.80;92.90;;;;;;5040848;28;20511;-84
2021/01/04 10:12:12;;;;;;;29.67;19.30;;;7.90;92.80;;;;;;5045783;28;20248;-85
2021/01/04 10:14:38;;;;;;;36.07;21.70;;;7.90;92.70;;;;;;5016021;28;20254;-85
2021/01/04 10:17:06;;;;;;;28.73;18.43;;;7.90;92.50;;;;;;5047223;28;20188;-75
2021/01/04 10:19:45;;;;;;;33.30;20.07;;;8.00;92.40;;;;;;5042764;28;20198;-74
2021/01/04 10:22:21;;;;;;;31.27;20.00;;;8.00;92.30;;;;;;5009077;28;20831;-75
2021/01/04 10:24:46;;;;;;;46.03;20.37;;;8.10;92.20;;;;;;5015295;28;20230;-75
2021/01/04 10:27:17;;;;;;;35.85;27.10;;;8.20;92.20;;;;;;5016809;28;20452;-75
2021/01/04 10:29:47;;;;;;;31.73;21.03;;;8.30;92.00;;;;;;5044864;28;20246;-74
2021/01/04 10:32:20;;;;;;;25.97;18.80;;;8.30;92.00;;;;;;5004472;28;20540;-75
2021/01/04 10:34:48;;;;;;;29.10;19.97;;;8.30;91.60;;;;;;5006992;28;20180;-75
2021/01/04 10:37:47;;;;;;;30.40;18.10;;;8.30;91.60;;;;;;5041206;28;20196;-75
2021/01/04 10:40:18;;;;;;;27.17;18.07;;;8.30;91.50;;;;;;5005700;28;20187;-75
2021/01/04 10:42:47;;;;;;;26.57;18.10;;;8.30;91.40;;;;;;5046234;28;20184;-76
2021/01/04 10:45:19;;;;;;;28.00;18.67;;;8.30;91.50;;;;;;5017960;28;20188;-75
2021/01/04 10:47:59;;;;;;;27.03;18.77;;;8.40;91.40;;;;;;5013855;28;20215;-75
2021/01/04 10:50:37;;;;;;;27.37;17.93;;;8.50;91.50;;;;;;5000103;28;20219;-75
2021/01/04 10:53:06;;;;;;;25.07;17.10;;;8.60;91.40;;;;;;5010093;28;20625;-75
2021/01/04 10:55:37;;;;;;;27.20;17.90;;;8.70;91.10;;;;;;5008693;28;20185;-75
2021/01/04 10:58:37;;;;;;;24.37;17.73;;;8.70;91.00;;;;;;5010777;28;20183;-76
2021/01/04 11:01:11;;;;;;;27.50;18.10;;;8.70;90.70;;;;;;5002012;28;20636;-76
2021/01/04 11:03:45;;;;;;;25.17;17.67;;;8.70;90.70;;;;;;5048392;28;20203;-75
2021/01/04 11:06:21;;;;;;;29.40;18.83;;;8.70;90.70;;;;;;5012120;28;20235;-76
2021/01/04 11:08:47;;;;;;;27.73;17.77;;;8.60;90.60;;;;;;5015974;28;20282;-75
2021/01/04 11:11:34;;;;;;;26.50;18.33;;;8.50;90.70;;;;;;5013979;28;20295;-75
2021/01/04 11:14:15;;;;;;;25.93;17.57;;;8.40;90.70;;;;;;5009160;28;20182;-74
2021/01/04 11:16:46;;;;;;;24.87;16.47;;;8.50;90.90;;;;;;5003957;28;20523;-75
2021/01/04 11:19:12;;;;;;;24.27;16.10;;;8.40;90.70;;;;;;5013834;28;20319;-75
2021/01/04 11:21:45;;;;;;;26.93;17.27;;;8.40;90.70;;;;;;5007180;28;20191;-76
2021/01/04 11:24:12;;;;;;;22.00;16.20;;;8.40;90.60;;;;;;5017348;28;20201;-75
2021/01/04 11:26:47;;;;;;;25.03;17.70;;;8.40;90.70;;;;;;5016023;28;20225;-74
2021/01/04 11:29:14;;;;;;;26.07;17.10;;;8.50;90.70;;;;;;5005948;28;20521;-75
2021/01/04 11:31:40;;;;;;;24.43;16.70;;;8.50;90.50;;;;;;5009880;28;20182;-75
2021/01/04 11:34:06;;;;;;;21.57;16.27;;;8.50;90.90;;;;;;5009814;28;20188;-75
2021/01/04 11:36:33;;;;;;;25.57;17.23;;;8.50;90.70;;;;;;5015968;23;20303;-93
2021/01/04 11:41:26;;;;;;;24.70;16.60;;;8.50;90.40;;;;;;5029986;28;20239;-74
2021/01/04 11:43:52;;;;;;;25.33;17.30;;;8.50;90.40;;;;;;5014682;28;20229;-74
2021/01/04 11:46:20;;;;;;;22.00;15.63;;;8.40;90.40;;;;;;5056371;22;20256;-83
2021/01/04 11:48:48;;;;;;;21.10;14.17;;;8.30;90.50;;;;;;5041252;28;20764;-83
2021/01/04 11:51:20;;;;;;;23.30;16.80;;;8.30;90.50;;;;;;5038583;28;20201;-83
2021/01/04 11:53:50;;;;;;;27.50;17.97;;;8.30;90.40;;;;;;5039887;28;20619;-83
2021/01/04 11:56:17;;;;;;;21.60;15.33;;;8.20;90.40;;;;;;5040346;28;20182;-82
2021/01/04 11:58:46;;;;;;;25.13;16.67;;;8.20;90.50;;;;;;5053499;28;20258;-83
2021/01/04 12:01:12;;;;;;;24.67;16.43;;;8.10;90.40;;;;;;5040897;28;20209;-83
2021/01/04 12:03:37;;;;;;;21.50;14.83;;;8.20;90.60;;;;;;5041231;28;20189;-83
2021/01/04 12:06:05;;;;;;;20.77;14.60;;;8.20;90.60;;;;;;5041501;28;20209;-82
2021/01/04 12:08:31;;;;;;;19.77;13.83;;;8.20;90.20;;;;;;5043078;28;20523;-83
2021/01/04 12:11:03;;;;;;;21.87;16.37;;;8.10;90.20;;;;;;5028625;28;20290;-84
2021/01/04 12:13:28;;;;;;;21.67;15.97;;;8.20;90.40;;;;;;5042341;28;20183;-83
2021/01/04 12:15:54;;;;;;;24.90;15.90;;;8.20;90.30;;;;;;5036242;28;20198;-84
2021/01/04 12:18:21;;;;;;;25.33;15.33;;;8.30;90.30;;;;;;5062016;28;20610;-84
2021/01/04 12:20:47;;;;;;;22.07;14.20;;;8.40;90.30;;;;;;5037872;28;20223;-83
2021/01/04 12:23:14;;;;;;;21.80;14.80;;;8.40;90.30;;;;;;5042091;28;20190;-83
2021/01/04 12:25:40;;;;;;;21.00;14.93;;;8.40;90.30;;;;;;5052779;28;20194;-83
2021/01/04 12:28:05;;;;;;;21.10;14.83;;;8.40;90.30;;;;;;5061996;28;20234;-84
2021/01/04 12:30:32;;;;;;;23.83;15.40;;;8.40;90.20;;;;;;5038455;28;20190;-83
2021/01/04 12:33:00;;;;;;;24.63;16.73;;;8.40;90.20;;;;;;5045371;28;20182;-83
2021/01/04 12:35:26;;;;;;;21.73;16.10;;;8.40;90.20;;;;;;5051916;28;20281;-83
2021/01/04 12:37:52;;;;;;;26.70;16.60;;;8.40;90.20;;;;;;5041708;28;20197;-84
2021/01/04 12:40:21;;;;;;;23.27;17.10;;;8.30;90.30;;;;;;5024337;28;20195;-84
2021/01/04 12:42:47;;;;;;;26.20;15.40;;;8.30;90.40;;;;;;5041544;28;20671;-83
2021/01/04 12:45:15;;;;;;;20.87;15.20;;;8.40;90.50;;;;;;5038754;28;20266;-83
2021/01/04 12:47:41;;;;;;;22.73;15.23;;;8.50;90.40;;;;;;5040358;28;20217;-84
2021/01/04 12:50:07;;;;;;;21.60;14.10;;;8.50;90.30;;;;;;5041312;28;20633;-83
2021/01/04 12:52:34;;;;;;;21.03;14.67;;;8.50;90.30;;;;;;5051199;28;20194;-84
2021/01/04 12:54:59;;;;;;;26.60;15.87;;;8.60;90.30;;;;;;5038550;28;20179;-83
2021/01/04 12:57:26;;;;;;;20.90;15.07;;;8.60;90.40;;;;;;5033174;28;20195;-84
2021/01/04 12:59:52;;;;;;;21.27;14.50;;;8.70;90.70;;;;;;5018581;28;20680;-84
2021/01/04 13:02:18;;;;;;;22.67;15.67;;;8.70;90.40;;;;;;5058121;28;20225;-83
2021/01/04 13:04:46;;;;;;;25.40;16.83;;;8.70;90.40;;;;;;5057769;28;20228;-83
2021/01/04 13:07:12;;;;;;;20.00;15.87;;;8.70;90.40;;;;;;5040027;28;20229;-83
2021/01/04 13:09:39;;;;;;;25.27;15.53;;;8.80;90.40;;;;;;5038823;28;20232;-83
2021/01/04 13:12:06;;;;;;;23.10;15.20;;;8.70;90.40;;;;;;5035479;28;20217;-83
2021/01/04 13:14:33;;;;;;;21.57;15.37;;;8.80;90.30;;;;;;5035958;28;20583;-83
2021/01/04 13:16:59;;;;;;;22.83;16.03;;;8.80;90.40;;;;;;5035016;28;20186;-83
2021/01/04 13:19:28;;;;;;;21.40;15.43;;;8.80;90.30;;;;;;5024558;28;20626;-84
2021/01/04 13:22:01;;;;;;;22.87;15.93;;;8.80;90.20;;;;;;5037946;28;20183;-83
2021/01/04 13:24:27;;;;;;;23.00;15.10;;;8.80;90.20;;;;;;5037893;28;20193;-83